createdAt,value
2019-01-28T00:02:51.095Z,0.47
2019-01-28T00:05:51.735Z,0.90
2019-01-28T00:08:52.695Z,0.50
2019-01-28T00:11:47.478Z,0.37
2019-01-28T00:14:41.613Z,0.80
2019-01-28T00:17:41.951Z,0.70
2019-01-28T00:20:35.829Z,0.67
2019-01-28T00:23:37.019Z,0.60
2019-01-28T00:26:44.261Z,0.40
2019-01-28T00:29:44.904Z,0.73
2019-01-28T00:32:39.263Z,0.73
2019-01-28T00:35:39.872Z,0.37
2019-01-28T00:38:34.427Z,0.70
2019-01-28T00:41:35.796Z,0.50
2019-01-28T00:44:29.337Z,0.30
2019-01-28T00:47:30.897Z,0.67
2019-01-28T00:50:24.287Z,0.40
2019-01-28T00:53:29.173Z,0.40
2019-01-28T00:56:23.479Z,0.50
2019-01-28T00:59:24.467Z,0.50
2019-01-28T01:02:18.699Z,0.60
2019-01-28T01:05:19.847Z,0.67
2019-01-28T01:08:13.350Z,0.60
2019-01-28T01:11:14.617Z,0.30
2019-01-28T01:14:08.968Z,0.43
2019-01-28T01:17:12.775Z,0.63
2019-01-28T01:20:06.138Z,0.50
2019-01-28T01:23:06.515Z,0.47
2019-01-28T01:26:00.627Z,0.37
2019-01-28T01:29:02.215Z,0.73
2019-01-28T01:31:58.886Z,0.60
2019-01-28T01:34:59.655Z,0.50
2019-01-28T01:37:54.025Z,0.40
2019-01-28T01:40:55.296Z,0.40
2019-01-28T01:43:48.932Z,0.60
2019-01-28T01:46:55.347Z,0.80
2019-01-28T01:49:49.394Z,0.50
2019-01-28T01:52:50.253Z,0.67
2019-01-28T01:55:44.654Z,0.37
2019-01-28T01:58:44.631Z,0.33
2019-01-28T02:01:51.518Z,0.60
2019-01-28T02:04:51.774Z,0.27
2019-01-28T02:07:46.106Z,0.43
2019-01-28T02:10:47.578Z,0.60
2019-01-28T02:13:41.634Z,0.60
2019-01-28T02:16:42.496Z,0.40
2019-01-28T02:19:36.733Z,0.47
2019-01-28T02:22:38.029Z,0.50
2019-01-28T02:25:31.475Z,0.80
2019-01-28T02:28:33.196Z,0.33
2019-01-28T02:31:27.432Z,0.67
2019-01-28T02:34:28.731Z,0.43
2019-01-28T02:37:23.195Z,0.43
2019-01-28T02:40:23.944Z,0.40
2019-01-28T02:43:17.735Z,0.30
2019-01-28T02:46:19.343Z,0.50
2019-01-28T02:49:13.237Z,0.37
2019-01-28T02:52:14.955Z,0.20
2019-01-28T02:55:12.516Z,0.60
2019-01-28T02:58:16.274Z,0.40
2019-01-28T03:01:09.992Z,0.20
2019-01-28T03:04:11.197Z,0.40
2019-01-28T03:07:05.666Z,0.43
2019-01-28T03:10:06.786Z,0.30
2019-01-28T03:13:00.235Z,0.30
2019-01-28T03:16:02.505Z,0.37
2019-01-28T03:18:56.400Z,0.30
2019-01-28T03:21:57.401Z,0.40
2019-01-28T03:24:50.941Z,0.30
2019-01-28T03:27:52.577Z,0.40
2019-01-28T03:30:46.218Z,0.37
2019-01-28T03:33:49.082Z,0.30
2019-01-28T03:36:45.520Z,0.30
2019-01-28T03:39:46.311Z,0.43
2019-01-28T03:42:40.244Z,0.40
2019-01-28T03:45:41.242Z,0.30
2019-01-28T03:48:35.869Z,0.40
2019-01-28T03:51:36.361Z,0.40
2019-01-28T03:54:36.967Z,0.40
2019-01-28T03:57:32.964Z,0.60
2019-01-28T04:00:26.930Z,0.20
2019-01-28T04:03:28.147Z,0.47
2019-01-28T04:06:22.044Z,0.50
2019-01-28T04:09:22.754Z,0.60
2019-01-28T04:12:30.212Z,0.53
2019-01-28T04:15:32.607Z,0.70
2019-01-28T04:18:30.011Z,0.40
2019-01-28T04:21:30.999Z,0.60
2019-01-28T04:24:27.624Z,0.30
2019-01-28T04:27:28.655Z,0.47
2019-01-28T04:30:24.430Z,0.30
2019-01-28T04:33:25.031Z,0.40
2019-01-28T04:36:19.159Z,0.33
2019-01-28T04:39:20.216Z,0.40
2019-01-28T04:42:16.568Z,0.30
2019-01-28T04:45:22.116Z,0.57
2019-01-28T04:48:17.121Z,0.60
2019-01-28T04:51:19.985Z,0.50
2019-01-28T04:54:13.905Z,0.47
2019-01-28T04:57:15.346Z,0.40
2019-01-28T05:00:09.759Z,0.40
2019-01-28T05:03:10.515Z,0.60
2019-01-28T05:06:04.127Z,0.50
2019-01-28T05:09:04.987Z,0.60
2019-01-28T05:11:59.423Z,0.30
2019-01-28T05:15:00.291Z,0.43
2019-01-28T05:17:53.977Z,0.30
2019-01-28T05:20:54.568Z,0.60
2019-01-28T05:23:50.463Z,0.53
2019-01-28T05:26:51.806Z,0.30
2019-01-28T05:29:45.854Z,0.50
2019-01-28T05:32:46.487Z,0.60
2019-01-28T05:35:40.683Z,0.37
2019-01-28T05:38:40.983Z,0.50
2019-01-28T05:41:35.113Z,0.60
2019-01-28T05:44:37.273Z,0.37
2019-01-28T05:47:30.699Z,0.40
2019-01-28T05:50:31.681Z,0.57
2019-01-28T05:53:25.637Z,0.43
2019-01-28T05:56:26.186Z,0.40
2019-01-28T05:59:26.715Z,0.40
2019-01-28T06:02:20.914Z,0.60
2019-01-28T06:05:14.866Z,0.57
2019-01-28T06:08:18.174Z,0.83
2019-01-28T06:11:11.819Z,0.60
2019-01-28T06:14:12.490Z,0.53
2019-01-28T06:17:09.599Z,0.50
2019-01-28T06:20:10.650Z,0.37
2019-01-28T06:23:11.249Z,0.47
2019-01-28T06:26:05.463Z,0.60
2019-01-28T06:28:59.201Z,0.60
2019-01-28T06:32:00.074Z,0.50
2019-01-28T06:34:54.746Z,0.57
2019-01-28T06:37:55.938Z,0.70
2019-01-28T06:40:58.143Z,0.53
2019-01-28T06:43:52.407Z,0.47
2019-01-28T06:46:49.581Z,0.53
2019-01-28T06:49:50.751Z,0.40
2019-01-28T06:52:58.063Z,0.63
2019-01-28T06:55:59.152Z,0.60
2019-01-28T06:58:53.497Z,0.57
2019-01-28T07:01:54.713Z,0.40
2019-01-28T07:04:48.341Z,0.40
2019-01-28T07:07:49.357Z,0.30
2019-01-28T07:10:43.652Z,0.43
2019-01-28T07:13:44.115Z,0.50
2019-01-28T07:16:37.798Z,0.60
2019-01-28T07:19:39.062Z,0.40
2019-01-28T07:22:32.940Z,0.50
2019-01-28T07:25:34.619Z,0.40
2019-01-28T07:28:31.397Z,0.50
2019-01-28T07:31:32.449Z,0.60
2019-01-28T07:34:26.057Z,0.40
2019-01-28T07:37:26.536Z,0.40
2019-01-28T07:40:22.494Z,0.47
2019-01-28T07:43:23.604Z,0.50
2019-01-28T07:46:16.811Z,0.50
2019-01-28T07:49:18.232Z,0.43
2019-01-28T07:52:12.296Z,0.50
2019-01-28T07:55:13.447Z,0.50
2019-01-28T07:58:07.646Z,0.40
2019-01-28T08:01:08.728Z,0.57
2019-01-28T08:04:16.331Z,0.50
2019-01-28T08:07:17.658Z,0.50
2019-01-28T08:10:13.187Z,0.47
2019-01-28T08:13:16.984Z,0.40
2019-01-28T08:16:11.327Z,0.30
2019-01-28T08:19:12.474Z,0.50
2019-01-28T08:22:06.969Z,0.53
2019-01-28T08:25:08.058Z,0.50
2019-01-28T08:28:02.629Z,0.40
2019-01-28T08:31:03.926Z,0.67
2019-01-28T08:33:59.073Z,0.83
2019-01-28T08:37:00.840Z,0.50
2019-01-28T08:39:55.739Z,0.50
2019-01-28T08:42:57.812Z,0.40
2019-01-28T08:45:51.874Z,0.43
2019-01-28T08:48:53.273Z,0.50
2019-01-28T08:51:47.739Z,0.30
2019-01-28T08:54:48.228Z,0.50
2019-01-28T08:57:43.586Z,0.77
2019-01-28T09:00:45.301Z,0.37
2019-01-28T09:03:39.156Z,0.50
2019-01-28T09:06:40.482Z,0.57
2019-01-28T09:09:34.309Z,0.60
2019-01-28T09:12:35.954Z,0.40
2019-01-28T09:15:30.434Z,0.50
2019-01-28T09:18:33.538Z,0.50
2019-01-28T09:21:27.884Z,0.30
2019-01-28T09:24:31.602Z,0.53
2019-01-28T09:27:25.957Z,0.67
2019-01-28T09:30:28.372Z,0.53
2019-01-28T09:33:22.669Z,0.53
2019-01-28T09:36:24.358Z,0.30
2019-01-28T09:39:19.672Z,0.53
2019-01-28T09:42:22.820Z,0.53
2019-01-28T09:45:18.126Z,0.63
2019-01-28T09:48:20.296Z,0.57
2019-01-28T09:51:13.940Z,0.37
2019-01-28T09:54:15.226Z,0.43
2019-01-28T09:57:09.534Z,0.70
2019-01-28T10:00:13.927Z,0.47
2019-01-28T10:03:08.643Z,0.63
2019-01-28T10:06:12.162Z,0.53
2019-01-28T10:09:13.868Z,0.37
2019-01-28T10:12:07.681Z,0.47
2019-01-28T10:15:02.104Z,0.50
2019-01-28T10:18:02.870Z,0.50
2019-01-28T10:21:10.209Z,0.60
2019-01-28T10:24:10.652Z,0.53
2019-01-28T10:27:04.879Z,0.50
2019-01-28T10:30:06.359Z,0.67
2019-01-28T10:33:00.498Z,0.50
2019-01-28T10:36:01.157Z,0.73
2019-01-28T10:38:55.265Z,0.70
2019-01-28T10:41:56.845Z,0.70
2019-01-28T10:44:50.438Z,0.63
2019-01-28T10:47:52.247Z,0.70
2019-01-28T10:50:46.492Z,0.47
2019-01-28T10:53:47.048Z,0.97
2019-01-28T10:56:41.016Z,0.57
2019-01-28T10:59:42.607Z,0.50
2019-01-28T11:02:36.530Z,0.60
2019-01-28T11:05:46.317Z,0.63
2019-01-28T11:08:40.289Z,0.53
2019-01-28T11:11:42.529Z,0.67
2019-01-28T11:14:36.438Z,0.50
2019-01-28T11:17:38.199Z,0.60
2019-01-28T11:20:32.557Z,0.50
2019-01-28T11:23:34.105Z,0.90
2019-01-28T11:26:27.801Z,0.50
2019-01-28T11:29:28.131Z,0.70
2019-01-28T11:32:21.819Z,0.77
2019-01-28T11:35:23.513Z,0.50
2019-01-28T11:38:17.594Z,0.67
2019-01-28T11:41:19.814Z,0.77
2019-01-28T11:44:15.227Z,0.70
2019-01-28T11:47:16.769Z,0.80
2019-01-28T11:50:12.203Z,0.50
2019-01-28T11:53:13.984Z,0.57
2019-01-28T11:56:07.793Z,0.63
2019-01-28T11:59:09.601Z,0.43
2019-01-28T12:02:04.941Z,0.60
2019-01-28T12:05:06.312Z,0.50
2019-01-28T12:07:59.672Z,0.70
2019-01-28T12:11:00.207Z,0.40
2019-01-28T12:14:00.504Z,0.70
2019-01-28T12:16:55.000Z,0.80
2019-01-28T12:19:50.859Z,0.83
2019-01-28T12:22:51.577Z,0.77
2019-01-28T12:25:58.737Z,0.47
2019-01-28T12:29:00.363Z,0.57
2019-01-28T12:31:54.191Z,0.40
2019-01-28T12:34:55.336Z,0.80
2019-01-28T12:37:48.948Z,0.70
2019-01-28T12:40:49.910Z,0.60
2019-01-28T12:43:43.724Z,0.60
2019-01-28T12:46:44.733Z,0.60
2019-01-28T12:49:38.432Z,0.43
2019-01-28T12:52:39.938Z,0.63
2019-01-28T12:55:34.077Z,0.50
2019-01-28T12:58:35.398Z,0.70
2019-01-28T13:01:29.657Z,0.50
2019-01-28T13:04:30.066Z,0.40
2019-01-28T13:07:24.703Z,0.60
2019-01-28T13:10:30.257Z,0.40
2019-01-28T13:13:24.387Z,0.80
2019-01-28T13:16:25.159Z,0.80
2019-01-28T13:19:20.656Z,0.60
2019-01-28T13:22:21.773Z,0.60
2019-01-28T13:25:18.335Z,0.80
2019-01-28T13:28:20.118Z,0.70
2019-01-28T13:31:13.799Z,0.50
2019-01-28T13:34:14.944Z,0.57
2019-01-28T13:37:08.839Z,0.70
2019-01-28T13:40:11.733Z,0.70
2019-01-28T13:43:07.400Z,0.90
2019-01-28T13:46:08.786Z,0.70
2019-01-28T13:49:02.958Z,0.70
2019-01-28T13:52:04.657Z,0.70
2019-01-28T13:54:58.618Z,0.50
2019-01-28T13:57:59.882Z,0.67
2019-01-28T14:00:54.362Z,0.60
2019-01-28T14:03:55.604Z,0.70
2019-01-28T14:06:49.465Z,0.70
2019-01-28T14:09:50.894Z,0.60
2019-01-28T14:12:45.668Z,0.67
2019-01-28T14:15:48.468Z,0.50
2019-01-28T14:18:55.202Z,0.80
2019-01-28T14:21:56.246Z,0.50
2019-01-28T14:24:50.128Z,0.30
2019-01-28T14:27:50.931Z,0.47
2019-01-28T14:30:46.579Z,0.60
2019-01-28T14:33:47.577Z,0.63
2019-01-28T14:36:41.235Z,0.60
2019-01-28T14:39:44.444Z,0.50
2019-01-28T14:42:38.086Z,0.40
2019-01-28T14:45:38.736Z,0.50
2019-01-28T14:48:33.492Z,0.67
2019-01-28T14:51:35.743Z,0.50
2019-01-28T14:54:30.038Z,0.53
2019-01-28T14:57:31.419Z,0.40
2019-01-28T15:00:30.859Z,0.33
2019-01-28T15:03:32.320Z,0.73
2019-01-28T15:06:27.368Z,0.40
2019-01-28T15:09:28.522Z,0.40
2019-01-28T15:12:22.296Z,0.37
2019-01-28T15:15:28.142Z,0.60
2019-01-28T15:18:22.250Z,0.63
2019-01-28T15:21:23.316Z,0.50
2019-01-28T15:24:16.946Z,0.23
2019-01-28T15:27:22.262Z,0.30
2019-01-28T15:30:18.394Z,0.30
2019-01-28T15:33:20.411Z,0.60
2019-01-28T15:36:14.374Z,0.30
2019-01-28T15:39:16.398Z,0.50
2019-01-28T15:42:11.108Z,0.40
2019-01-28T15:45:13.507Z,0.10
2019-01-28T15:48:06.940Z,0.50
2019-01-28T15:51:07.568Z,0.33
2019-01-28T15:54:01.039Z,0.30
2019-01-28T15:57:02.380Z,0.43
2019-01-28T15:59:55.938Z,0.40
2019-01-28T16:02:56.855Z,0.27
2019-01-28T16:05:51.362Z,0.37
2019-01-28T16:08:53.262Z,0.60
2019-01-28T16:11:47.688Z,0.33
2019-01-28T16:14:48.738Z,0.43
2019-01-28T16:17:42.819Z,0.33
2019-01-28T16:20:44.484Z,0.50
2019-01-28T16:23:44.459Z,0.50
2019-01-28T16:26:38.370Z,0.53
2019-01-28T16:29:32.562Z,0.53
2019-01-28T16:32:33.111Z,0.60
2019-01-28T16:35:27.221Z,0.50
2019-01-28T16:38:30.977Z,0.80
2019-01-28T16:41:38.025Z,0.53
2019-01-28T16:44:39.114Z,0.53
2019-01-28T16:47:32.669Z,0.50
2019-01-28T16:50:36.929Z,0.50
2019-01-28T16:53:30.650Z,0.50
2019-01-28T16:56:33.508Z,0.43
2019-01-28T16:59:28.175Z,0.30
2019-01-28T17:02:31.618Z,0.77
2019-01-28T17:05:37.014Z,0.50
2019-01-28T17:08:37.868Z,0.30
2019-01-28T17:11:32.665Z,0.70
2019-01-28T17:14:33.609Z,0.60
2019-01-28T17:17:27.761Z,0.50
2019-01-28T17:20:35.160Z,0.30
2019-01-28T17:23:25.569Z,0.37
2019-01-28T17:26:27.179Z,0.57
2019-01-28T17:29:21.750Z,0.57
2019-01-28T17:32:23.111Z,0.50
2019-01-28T17:35:17.465Z,0.50
2019-01-28T17:38:18.830Z,0.60
2019-01-28T17:41:13.497Z,0.50
2019-01-28T17:44:15.690Z,0.47
2019-01-28T17:47:09.473Z,0.47
2019-01-28T17:50:10.735Z,0.70
2019-01-28T17:53:04.639Z,0.80
2019-01-28T17:56:07.763Z,0.50
2019-01-28T17:59:03.503Z,0.90
2019-01-28T18:02:04.853Z,0.53
2019-01-28T18:04:59.169Z,0.60
2019-01-28T18:07:59.884Z,1.00
2019-01-28T18:10:53.445Z,0.87
2019-01-28T18:13:53.989Z,0.93
2019-01-28T18:16:48.177Z,0.90
2019-01-28T18:19:49.110Z,1.00
2019-01-28T18:22:44.591Z,0.90
2019-01-28T18:25:45.595Z,0.90
2019-01-28T18:28:46.255Z,1.07
2019-01-28T18:31:40.096Z,1.10
2019-01-28T18:34:33.751Z,1.07
2019-01-28T18:37:35.617Z,1.07
2019-01-28T18:40:42.467Z,0.80
2019-01-28T18:43:43.825Z,1.00
2019-01-28T18:46:41.659Z,0.80
2019-01-28T18:49:43.149Z,1.00
2019-01-28T18:52:36.909Z,1.07
2019-01-28T18:55:38.738Z,0.87
2019-01-28T18:58:32.555Z,0.93
2019-01-28T19:01:33.799Z,1.10
2019-01-28T19:04:27.277Z,1.00
2019-01-28T19:07:32.053Z,0.90
2019-01-28T19:10:28.222Z,1.23
2019-01-28T19:13:33.233Z,1.00
2019-01-28T19:16:32.130Z,1.13
2019-01-28T19:19:42.999Z,0.90
2019-01-28T19:22:36.653Z,1.50
2019-01-28T19:25:38.355Z,1.37
2019-01-28T19:28:31.887Z,0.97
2019-01-28T19:31:33.331Z,1.10
2019-01-28T19:34:27.467Z,0.90
2019-01-28T19:37:31.768Z,1.10
2019-01-28T19:40:26.054Z,1.10
2019-01-28T19:43:28.325Z,0.93
2019-01-28T19:46:22.609Z,1.27
2019-01-28T19:49:26.518Z,0.77
2019-01-28T19:52:20.745Z,1.10
2019-01-28T19:55:22.099Z,1.00
2019-01-28T19:58:15.854Z,0.97
2019-01-28T20:01:16.491Z,1.47
2019-01-28T20:04:10.160Z,1.50
2019-01-28T20:07:12.437Z,1.40
2019-01-28T20:10:06.462Z,1.10
2019-01-28T20:13:08.517Z,0.80
2019-01-28T20:16:06.169Z,1.20
2019-01-28T20:19:07.813Z,1.10
2019-01-28T20:22:02.210Z,1.00
2019-01-28T20:25:03.790Z,0.83
2019-01-28T20:27:57.858Z,0.97
2019-01-28T20:30:58.872Z,1.10
2019-01-28T20:33:59.524Z,1.07
2019-01-28T20:36:54.468Z,0.83
2019-01-28T20:40:01.768Z,1.10
2019-01-28T20:43:03.313Z,0.90
2019-01-28T20:46:18.887Z,1.17
2019-01-28T20:49:19.396Z,0.70
2019-01-28T20:52:14.790Z,0.83
2019-01-28T20:55:15.578Z,1.20
2019-01-28T20:58:10.244Z,1.10
2019-01-28T21:01:11.569Z,1.00
2019-01-28T21:04:05.668Z,0.80
2019-01-28T21:07:07.221Z,1.03
2019-01-28T21:10:00.909Z,0.90
2019-01-28T21:13:02.605Z,0.70
2019-01-28T21:15:56.859Z,1.10
2019-01-28T21:18:58.138Z,0.80
2019-01-28T21:21:52.099Z,0.60
2019-01-28T21:24:52.852Z,0.90
2019-01-28T21:27:46.892Z,0.90
2019-01-28T21:30:48.440Z,1.17
2019-01-28T21:33:42.614Z,0.93
2019-01-28T21:36:47.085Z,1.00
2019-01-28T21:39:41.586Z,0.93
2019-01-28T21:42:43.232Z,1.23
2019-01-28T21:45:37.018Z,0.87
2019-01-28T21:48:41.048Z,0.97
2019-01-28T21:51:34.522Z,1.00
2019-01-28T21:54:36.454Z,1.00
2019-01-28T21:57:30.108Z,1.20
2019-01-28T22:00:31.935Z,0.97
2019-01-28T22:03:25.282Z,1.10
2019-01-28T22:06:26.041Z,1.13
2019-01-28T22:09:23.531Z,0.97
2019-01-28T22:12:24.754Z,1.13
2019-01-28T22:15:19.886Z,1.00
2019-01-28T22:18:21.478Z,0.80
2019-01-28T22:21:15.599Z,0.80
2019-01-28T22:24:19.373Z,1.10
2019-01-28T22:27:15.807Z,1.03
2019-01-28T22:30:28.106Z,0.97
2019-01-28T22:33:22.799Z,0.87
2019-01-28T22:36:23.683Z,1.10
2019-01-28T22:39:23.841Z,1.10
2019-01-28T22:42:21.360Z,0.87
2019-01-28T22:45:29.077Z,0.90
2019-01-28T22:48:30.443Z,0.97
2019-01-28T22:51:24.081Z,1.00
2019-01-28T22:54:24.641Z,0.93
2019-01-28T22:57:18.615Z,1.00
2019-01-28T23:00:20.388Z,0.90
2019-01-28T23:03:14.153Z,0.73
2019-01-28T23:06:15.500Z,1.10
2019-01-28T23:09:09.629Z,1.10
2019-01-28T23:12:11.476Z,1.00
2019-01-28T23:15:04.980Z,1.00
2019-01-28T23:18:07.066Z,0.63
2019-01-28T23:21:01.137Z,1.00
2019-01-28T23:24:02.659Z,1.07
2019-01-28T23:26:56.262Z,1.20
2019-01-28T23:29:56.858Z,0.93
2019-01-28T23:32:52.823Z,1.10
2019-01-28T23:35:53.793Z,0.97
2019-01-28T23:38:47.359Z,1.00
2019-01-28T23:41:47.877Z,0.83
2019-01-28T23:44:42.683Z,1.07
2019-01-28T23:47:43.689Z,0.93
2019-01-28T23:50:37.993Z,1.10
2019-01-28T23:53:39.245Z,1.30
2019-01-28T23:56:32.539Z,0.90
2019-01-28T23:59:33.911Z,0.97
